<?xml version="1.0" encoding="UTF-8" standalone="no" ?>
<gpx xmlns="http://www.topografix.com/GPX/1/1" xmlns:xsi="http://www.w3.org/2001/XMLSchema-instance" xsi:schemaLocation="http://www.topografix.com/GPX/1/1 http://www.topografix.com/GPX/1/1/gpx.xsd" version="1.1" creator="VisuGPX - https://www.visugpx.com">
  <metadata>
    <name>Belle-isle-en-terre - 9.28 km - RANDO MUCO 2023 circuit A</name>
  </metadata>
  <trk>
    <name><![CDATA[Pédestre 10km barrage 2023-10532221]]></name>
    <extensions>
      <line xmlns="http://www.topografix.com/GPX/gpx_style/0/2">
        <color>0000FF</color>
        <width>4</width>
      </line>
    </extensions>
    <trkseg>
      <trkpt lat="48.54655" lon="-3.39666">
        <ele>90</ele>
        <time>2023-04-13T07:21:53Z</time>
      </trkpt>
      <trkpt lat="48.54621" lon="-3.39558">
        <ele>91</ele>
        <time>2023-04-13T07:23:39Z</time>
      </trkpt>
      <trkpt lat="48.54526" lon="-3.39558">
        <ele>93</ele>
        <time>2023-04-13T07:25:45Z</time>
      </trkpt>
      <trkpt lat="48.54513" lon="-3.39592">
        <ele>93</ele>
        <time>2023-04-13T07:26:20Z</time>
      </trkpt>
      <trkpt lat="48.54474" lon="-3.39595">
        <ele>94</ele>
        <time>2023-04-13T07:27:12Z</time>
      </trkpt>
      <trkpt lat="48.5442" lon="-3.3961">
        <ele>94</ele>
        <time>2023-04-13T07:28:25Z</time>
      </trkpt>
      <trkpt lat="48.54412" lon="-3.39695">
        <ele>93</ele>
        <time>2023-04-13T07:29:41Z</time>
      </trkpt>
      <trkpt lat="48.54411" lon="-3.39758">
        <ele>95</ele>
        <time>2023-04-13T07:30:37Z</time>
      </trkpt>
      <trkpt lat="48.5444" lon="-3.39774">
        <ele>95</ele>
        <time>2023-04-13T07:31:18Z</time>
      </trkpt>
      <trkpt lat="48.54558" lon="-3.39874">
        <ele>95</ele>
        <time>2023-04-13T07:34:19Z</time>
      </trkpt>
      <trkpt lat="48.54609" lon="-3.39916">
        <ele>95</ele>
        <time>2023-04-13T07:35:36Z</time>
      </trkpt>
      <trkpt lat="48.54693" lon="-3.39884">
        <ele>94</ele>
        <time>2023-04-13T07:37:32Z</time>
      </trkpt>
      <trkpt lat="48.54749" lon="-3.3985">
        <ele>95</ele>
        <time>2023-04-13T07:38:52Z</time>
      </trkpt>
      <trkpt lat="48.54797" lon="-3.39835">
        <ele>94</ele>
        <time>2023-04-13T07:39:58Z</time>
      </trkpt>
      <trkpt lat="48.54854" lon="-3.39834">
        <ele>97</ele>
        <time>2023-04-13T07:41:14Z</time>
      </trkpt>
      <trkpt lat="48.54912" lon="-3.39756">
        <ele>95</ele>
        <time>2023-04-13T07:42:58Z</time>
      </trkpt>
      <trkpt lat="48.54964" lon="-3.39737">
        <ele>97</ele>
        <time>2023-04-13T07:44:09Z</time>
      </trkpt>
      <trkpt lat="48.54998" lon="-3.39694">
        <ele>95</ele>
        <time>2023-04-13T07:45:08Z</time>
      </trkpt>
      <trkpt lat="48.55026" lon="-3.39662">
        <ele>95</ele>
        <time>2023-04-13T07:45:55Z</time>
      </trkpt>
      <trkpt lat="48.55059" lon="-3.39668">
        <ele>98</ele>
        <time>2023-04-13T07:46:39Z</time>
      </trkpt>
      <trkpt lat="48.55062" lon="-3.39667">
        <ele>98</ele>
        <time>2023-04-13T07:46:43Z</time>
      </trkpt>
      <trkpt lat="48.55067" lon="-3.39663">
        <ele>99</ele>
        <time>2023-04-13T07:46:51Z</time>
      </trkpt>
      <trkpt lat="48.55135" lon="-3.39639">
        <ele>101</ele>
        <time>2023-04-13T07:48:24Z</time>
      </trkpt>
      <trkpt lat="48.55189" lon="-3.39675">
        <ele>101</ele>
        <time>2023-04-13T07:49:43Z</time>
      </trkpt>
      <trkpt lat="48.55255" lon="-3.39776">
        <ele>99</ele>
        <time>2023-04-13T07:51:48Z</time>
      </trkpt>
      <trkpt lat="48.5528" lon="-3.39819">
        <ele>102</ele>
        <time>2023-04-13T07:52:39Z</time>
      </trkpt>
      <trkpt lat="48.55292" lon="-3.39831">
        <ele>102</ele>
        <time>2023-04-13T07:52:58Z</time>
      </trkpt>
      <trkpt lat="48.55337" lon="-3.39851">
        <ele>100</ele>
        <time>2023-04-13T07:54:01Z</time>
      </trkpt>
      <trkpt lat="48.55442" lon="-3.39883">
        <ele>97</ele>
        <time>2023-04-13T07:56:24Z</time>
      </trkpt>
      <trkpt lat="48.55478" lon="-3.39875">
        <ele>96</ele>
        <time>2023-04-13T07:57:12Z</time>
      </trkpt>
      <trkpt lat="48.5553" lon="-3.39892">
        <ele>100</ele>
        <time>2023-04-13T07:58:23Z</time>
      </trkpt>
      <trkpt lat="48.55579" lon="-3.39914">
        <ele>104</ele>
        <time>2023-04-13T07:59:31Z</time>
      </trkpt>
      <trkpt lat="48.55626" lon="-3.39918">
        <ele>106</ele>
        <time>2023-04-13T08:00:34Z</time>
      </trkpt>
      <trkpt lat="48.5566" lon="-3.3987">
        <ele>99</ele>
        <time>2023-04-13T08:01:36Z</time>
      </trkpt>
      <trkpt lat="48.55693" lon="-3.39848">
        <ele>99</ele>
        <time>2023-04-13T08:02:24Z</time>
      </trkpt>
      <trkpt lat="48.55739" lon="-3.39811">
        <ele>102</ele>
        <time>2023-04-13T08:03:34Z</time>
      </trkpt>
      <trkpt lat="48.55766" lon="-3.3978">
        <ele>99</ele>
        <time>2023-04-13T08:04:19Z</time>
      </trkpt>
      <trkpt lat="48.55785" lon="-3.39762">
        <ele>98</ele>
        <time>2023-04-13T08:04:49Z</time>
      </trkpt>
      <trkpt lat="48.55823" lon="-3.39736">
        <ele>96</ele>
        <time>2023-04-13T08:05:45Z</time>
      </trkpt>
      <trkpt lat="48.55871" lon="-3.39761">
        <ele>102</ele>
        <time>2023-04-13T08:06:53Z</time>
      </trkpt>
      <trkpt lat="48.55918" lon="-3.39736">
        <ele>101</ele>
        <time>2023-04-13T08:07:59Z</time>
      </trkpt>
      <trkpt lat="48.55941" lon="-3.39735">
        <ele>102</ele>
        <time>2023-04-13T08:08:30Z</time>
      </trkpt>
      <trkpt lat="48.55951" lon="-3.39752">
        <ele>105</ele>
        <time>2023-04-13T08:08:50Z</time>
      </trkpt>
      <trkpt lat="48.55948" lon="-3.3977">
        <ele>106</ele>
        <time>2023-04-13T08:09:06Z</time>
      </trkpt>
      <trkpt lat="48.55928" lon="-3.39795">
        <ele>109</ele>
        <time>2023-04-13T08:09:41Z</time>
      </trkpt>
      <trkpt lat="48.55887" lon="-3.39839">
        <ele>114</ele>
        <time>2023-04-13T08:10:48Z</time>
      </trkpt>
      <trkpt lat="48.55885" lon="-3.39891">
        <ele>120</ele>
        <time>2023-04-13T08:11:34Z</time>
      </trkpt>
      <trkpt lat="48.55892" lon="-3.39893">
        <ele>120</ele>
        <time>2023-04-13T08:11:43Z</time>
      </trkpt>
      <trkpt lat="48.55947" lon="-3.39848">
        <ele>113</ele>
        <time>2023-04-13T08:13:07Z</time>
      </trkpt>
      <trkpt lat="48.55983" lon="-3.39818">
        <ele>110</ele>
        <time>2023-04-13T08:14:02Z</time>
      </trkpt>
      <trkpt lat="48.55997" lon="-3.3979">
        <ele>109</ele>
        <time>2023-04-13T08:14:33Z</time>
      </trkpt>
      <trkpt lat="48.56019" lon="-3.39792">
        <ele>107</ele>
        <time>2023-04-13T08:15:02Z</time>
      </trkpt>
      <trkpt lat="48.5603" lon="-3.39815">
        <ele>106</ele>
        <time>2023-04-13T08:15:27Z</time>
      </trkpt>
      <trkpt lat="48.5603" lon="-3.39857">
        <ele>108</ele>
        <time>2023-04-13T08:16:04Z</time>
      </trkpt>
      <trkpt lat="48.56024" lon="-3.39888">
        <ele>110</ele>
        <time>2023-04-13T08:16:33Z</time>
      </trkpt>
      <trkpt lat="48.56014" lon="-3.39923">
        <ele>113</ele>
        <time>2023-04-13T08:17:07Z</time>
      </trkpt>
      <trkpt lat="48.5608" lon="-3.39949">
        <ele>104</ele>
        <time>2023-04-13T08:18:38Z</time>
      </trkpt>
      <trkpt lat="48.56098" lon="-3.3999">
        <ele>106</ele>
        <time>2023-04-13T08:19:21Z</time>
      </trkpt>
      <trkpt lat="48.56138" lon="-3.40093">
        <ele>103</ele>
        <time>2023-04-13T08:21:07Z</time>
      </trkpt>
      <trkpt lat="48.56151" lon="-3.4012">
        <ele>102</ele>
        <time>2023-04-13T08:21:36Z</time>
      </trkpt>
      <trkpt lat="48.56193" lon="-3.40198">
        <ele>101</ele>
        <time>2023-04-13T08:23:05Z</time>
      </trkpt>
      <trkpt lat="48.56231" lon="-3.4026">
        <ele>96</ele>
        <time>2023-04-13T08:24:19Z</time>
      </trkpt>
      <trkpt lat="48.56257" lon="-3.40339">
        <ele>95</ele>
        <time>2023-04-13T08:25:37Z</time>
      </trkpt>
      <trkpt lat="48.56287" lon="-3.40398">
        <ele>96</ele>
        <time>2023-04-13T08:26:43Z</time>
      </trkpt>
      <trkpt lat="48.56319" lon="-3.40447">
        <ele>97</ele>
        <time>2023-04-13T08:27:44Z</time>
      </trkpt>
      <trkpt lat="48.56352" lon="-3.40481">
        <ele>99</ele>
        <time>2023-04-13T08:28:37Z</time>
      </trkpt>
      <trkpt lat="48.56382" lon="-3.40505">
        <ele>100</ele>
        <time>2023-04-13T08:29:22Z</time>
      </trkpt>
      <trkpt lat="48.56416" lon="-3.40496">
        <ele>95</ele>
        <time>2023-04-13T08:30:09Z</time>
      </trkpt>
      <trkpt lat="48.56499" lon="-3.40473">
        <ele>95</ele>
        <time>2023-04-13T08:32:01Z</time>
      </trkpt>
      <trkpt lat="48.56566" lon="-3.4047">
        <ele>93</ele>
        <time>2023-04-13T08:33:31Z</time>
      </trkpt>
      <trkpt lat="48.56619" lon="-3.40516">
        <ele>94</ele>
        <time>2023-04-13T08:34:52Z</time>
      </trkpt>
      <trkpt lat="48.56664" lon="-3.4056">
        <ele>93</ele>
        <time>2023-04-13T08:36:04Z</time>
      </trkpt>
      <trkpt lat="48.56693" lon="-3.40593">
        <ele>93</ele>
        <time>2023-04-13T08:36:52Z</time>
      </trkpt>
      <trkpt lat="48.56713" lon="-3.40625">
        <ele>91</ele>
        <time>2023-04-13T08:37:31Z</time>
      </trkpt>
      <trkpt lat="48.56723" lon="-3.4068">
        <ele>90</ele>
        <time>2023-04-13T08:38:21Z</time>
      </trkpt>
      <trkpt lat="48.56705" lon="-3.40712">
        <ele>91</ele>
        <time>2023-04-13T08:38:58Z</time>
      </trkpt>
      <trkpt lat="48.56685" lon="-3.40731">
        <ele>90</ele>
        <time>2023-04-13T08:39:30Z</time>
      </trkpt>
      <trkpt lat="48.56655" lon="-3.40751">
        <ele>87</ele>
        <time>2023-04-13T08:40:14Z</time>
      </trkpt>
      <trkpt lat="48.56617" lon="-3.40768">
        <ele>90</ele>
        <time>2023-04-13T08:41:07Z</time>
      </trkpt>
      <trkpt lat="48.5654" lon="-3.40803">
        <ele>91</ele>
        <time>2023-04-13T08:42:54Z</time>
      </trkpt>
      <trkpt lat="48.56516" lon="-3.40837">
        <ele>89</ele>
        <time>2023-04-13T08:43:38Z</time>
      </trkpt>
      <trkpt lat="48.56491" lon="-3.40866">
        <ele>90</ele>
        <time>2023-04-13T08:44:20Z</time>
      </trkpt>
      <trkpt lat="48.56455" lon="-3.40916">
        <ele>97</ele>
        <time>2023-04-13T08:45:25Z</time>
      </trkpt>
      <trkpt lat="48.5645" lon="-3.40969">
        <ele>99</ele>
        <time>2023-04-13T08:46:12Z</time>
      </trkpt>
      <trkpt lat="48.56459" lon="-3.41018">
        <ele>100</ele>
        <time>2023-04-13T08:46:57Z</time>
      </trkpt>
      <trkpt lat="48.56491" lon="-3.41065">
        <ele>97</ele>
        <time>2023-04-13T08:47:57Z</time>
      </trkpt>
      <trkpt lat="48.56549" lon="-3.41112">
        <ele>96</ele>
        <time>2023-04-13T08:49:25Z</time>
      </trkpt>
      <trkpt lat="48.56588" lon="-3.41137">
        <ele>94</ele>
        <time>2023-04-13T08:50:21Z</time>
      </trkpt>
      <trkpt lat="48.56667" lon="-3.41166">
        <ele>94</ele>
        <time>2023-04-13T08:52:10Z</time>
      </trkpt>
      <trkpt lat="48.5674" lon="-3.41166">
        <ele>95</ele>
        <time>2023-04-13T08:53:47Z</time>
      </trkpt>
      <trkpt lat="48.56778" lon="-3.41153">
        <ele>96</ele>
        <time>2023-04-13T08:54:39Z</time>
      </trkpt>
      <trkpt lat="48.568" lon="-3.41137">
        <ele>95</ele>
        <time>2023-04-13T08:55:12Z</time>
      </trkpt>
      <trkpt lat="48.56822" lon="-3.41108">
        <ele>91</ele>
        <time>2023-04-13T08:55:51Z</time>
      </trkpt>
      <trkpt lat="48.56853" lon="-3.41056">
        <ele>83</ele>
        <time>2023-04-13T08:56:52Z</time>
      </trkpt>
      <trkpt lat="48.56881" lon="-3.41049">
        <ele>82</ele>
        <time>2023-04-13T08:57:30Z</time>
      </trkpt>
      <trkpt lat="48.56901" lon="-3.41057">
        <ele>83</ele>
        <time>2023-04-13T08:57:58Z</time>
      </trkpt>
      <trkpt lat="48.56927" lon="-3.41077">
        <ele>83</ele>
        <time>2023-04-13T08:58:37Z</time>
      </trkpt>
      <trkpt lat="48.56966" lon="-3.41021">
        <ele>89</ele>
        <time>2023-04-13T08:59:49Z</time>
      </trkpt>
      <trkpt lat="48.56953" lon="-3.4098">
        <ele>93</ele>
        <time>2023-04-13T09:00:29Z</time>
      </trkpt>
      <trkpt lat="48.56926" lon="-3.40944">
        <ele>96</ele>
        <time>2023-04-13T09:01:17Z</time>
      </trkpt>
      <trkpt lat="48.56872" lon="-3.40939">
        <ele>95</ele>
        <time>2023-04-13T09:02:29Z</time>
      </trkpt>
      <trkpt lat="48.5683" lon="-3.40958">
        <ele>90</ele>
        <time>2023-04-13T09:03:28Z</time>
      </trkpt>
      <trkpt lat="48.56799" lon="-3.40977">
        <ele>89</ele>
        <time>2023-04-13T09:04:12Z</time>
      </trkpt>
      <trkpt lat="48.5676" lon="-3.41003">
        <ele>88</ele>
        <time>2023-04-13T09:05:09Z</time>
      </trkpt>
      <trkpt lat="48.56734" lon="-3.41023">
        <ele>88</ele>
        <time>2023-04-13T09:05:48Z</time>
      </trkpt>
      <trkpt lat="48.56709" lon="-3.41036">
        <ele>87</ele>
        <time>2023-04-13T09:06:23Z</time>
      </trkpt>
      <trkpt lat="48.5668" lon="-3.41046">
        <ele>86</ele>
        <time>2023-04-13T09:07:03Z</time>
      </trkpt>
      <trkpt lat="48.56642" lon="-3.41043">
        <ele>85</ele>
        <time>2023-04-13T09:07:54Z</time>
      </trkpt>
      <trkpt lat="48.56597" lon="-3.40995">
        <ele>85</ele>
        <time>2023-04-13T09:09:07Z</time>
      </trkpt>
      <trkpt lat="48.5658" lon="-3.40952">
        <ele>85</ele>
        <time>2023-04-13T09:09:52Z</time>
      </trkpt>
      <trkpt lat="48.56587" lon="-3.40903">
        <ele>86</ele>
        <time>2023-04-13T09:10:36Z</time>
      </trkpt>
      <trkpt lat="48.56633" lon="-3.40888">
        <ele>92</ele>
        <time>2023-04-13T09:11:39Z</time>
      </trkpt>
      <trkpt lat="48.56661" lon="-3.40881">
        <ele>95</ele>
        <time>2023-04-13T09:12:16Z</time>
      </trkpt>
      <trkpt lat="48.56693" lon="-3.4085">
        <ele>95</ele>
        <time>2023-04-13T09:13:07Z</time>
      </trkpt>
      <trkpt lat="48.56735" lon="-3.40776">
        <ele>97</ele>
        <time>2023-04-13T09:14:33Z</time>
      </trkpt>
      <trkpt lat="48.56762" lon="-3.40759">
        <ele>101</ele>
        <time>2023-04-13T09:15:12Z</time>
      </trkpt>
      <trkpt lat="48.5678" lon="-3.40706">
        <ele>102</ele>
        <time>2023-04-13T09:16:05Z</time>
      </trkpt>
      <trkpt lat="48.56775" lon="-3.4066">
        <ele>96</ele>
        <time>2023-04-13T09:16:46Z</time>
      </trkpt>
      <trkpt lat="48.56769" lon="-3.40595">
        <ele>92</ele>
        <time>2023-04-13T09:17:44Z</time>
      </trkpt>
      <trkpt lat="48.56743" lon="-3.40489">
        <ele>89</ele>
        <time>2023-04-13T09:19:24Z</time>
      </trkpt>
      <trkpt lat="48.56704" lon="-3.40407">
        <ele>93</ele>
        <time>2023-04-13T09:20:53Z</time>
      </trkpt>
      <trkpt lat="48.56684" lon="-3.40392">
        <ele>93</ele>
        <time>2023-04-13T09:21:23Z</time>
      </trkpt>
      <trkpt lat="48.56603" lon="-3.40328">
        <ele>99</ele>
        <time>2023-04-13T09:23:25Z</time>
      </trkpt>
      <trkpt lat="48.56494" lon="-3.4026">
        <ele>108</ele>
        <time>2023-04-13T09:26:02Z</time>
      </trkpt>
      <trkpt lat="48.56463" lon="-3.403">
        <ele>98</ele>
        <time>2023-04-13T09:26:57Z</time>
      </trkpt>
      <trkpt lat="48.56412" lon="-3.40315">
        <ele>92</ele>
        <time>2023-04-13T09:28:06Z</time>
      </trkpt>
      <trkpt lat="48.56344" lon="-3.40216">
        <ele>93</ele>
        <time>2023-04-13T09:30:12Z</time>
      </trkpt>
      <trkpt lat="48.5625" lon="-3.40024">
        <ele>93</ele>
        <time>2023-04-13T09:33:43Z</time>
      </trkpt>
      <trkpt lat="48.56226" lon="-3.40009">
        <ele>93</ele>
        <time>2023-04-13T09:34:17Z</time>
      </trkpt>
      <trkpt lat="48.56205" lon="-3.40032">
        <ele>93</ele>
        <time>2023-04-13T09:34:52Z</time>
      </trkpt>
      <trkpt lat="48.56188" lon="-3.39994">
        <ele>92</ele>
        <time>2023-04-13T09:35:33Z</time>
      </trkpt>
      <trkpt lat="48.56189" lon="-3.39951">
        <ele>92</ele>
        <time>2023-04-13T09:36:11Z</time>
      </trkpt>
      <trkpt lat="48.56177" lon="-3.39891">
        <ele>91</ele>
        <time>2023-04-13T09:37:06Z</time>
      </trkpt>
      <trkpt lat="48.56233" lon="-3.39823">
        <ele>97</ele>
        <time>2023-04-13T09:38:42Z</time>
      </trkpt>
      <trkpt lat="48.56196" lon="-3.39799">
        <ele>97</ele>
        <time>2023-04-13T09:39:36Z</time>
      </trkpt>
      <trkpt lat="48.56155" lon="-3.3975">
        <ele>99</ele>
        <time>2023-04-13T09:40:45Z</time>
      </trkpt>
      <trkpt lat="48.56116" lon="-3.39627">
        <ele>99</ele>
        <time>2023-04-13T09:42:46Z</time>
      </trkpt>
      <trkpt lat="48.56086" lon="-3.39547">
        <ele>96</ele>
        <time>2023-04-13T09:44:07Z</time>
      </trkpt>
      <trkpt lat="48.56053" lon="-3.39541">
        <ele>94</ele>
        <time>2023-04-13T09:44:51Z</time>
      </trkpt>
      <trkpt lat="48.55996" lon="-3.39551">
        <ele>90</ele>
        <time>2023-04-13T09:46:08Z</time>
      </trkpt>
      <trkpt lat="48.55939" lon="-3.39529">
        <ele>93</ele>
        <time>2023-04-13T09:47:26Z</time>
      </trkpt>
      <trkpt lat="48.55912" lon="-3.39538">
        <ele>93</ele>
        <time>2023-04-13T09:48:03Z</time>
      </trkpt>
      <trkpt lat="48.55881" lon="-3.39565">
        <ele>92</ele>
        <time>2023-04-13T09:48:51Z</time>
      </trkpt>
      <trkpt lat="48.55858" lon="-3.39579">
        <ele>91</ele>
        <time>2023-04-13T09:49:24Z</time>
      </trkpt>
      <trkpt lat="48.5583" lon="-3.39543">
        <ele>98</ele>
        <time>2023-04-13T09:50:13Z</time>
      </trkpt>
      <trkpt lat="48.5584" lon="-3.39505">
        <ele>101</ele>
        <time>2023-04-13T09:50:49Z</time>
      </trkpt>
      <trkpt lat="48.55842" lon="-3.39483">
        <ele>103</ele>
        <time>2023-04-13T09:51:09Z</time>
      </trkpt>
      <trkpt lat="48.55829" lon="-3.39475">
        <ele>105</ele>
        <time>2023-04-13T09:51:28Z</time>
      </trkpt>
      <trkpt lat="48.55818" lon="-3.39492">
        <ele>106</ele>
        <time>2023-04-13T09:51:49Z</time>
      </trkpt>
      <trkpt lat="48.55778" lon="-3.39434">
        <ele>119</ele>
        <time>2023-04-13T09:53:03Z</time>
      </trkpt>
      <trkpt lat="48.55754" lon="-3.39422">
        <ele>125</ele>
        <time>2023-04-13T09:53:36Z</time>
      </trkpt>
      <trkpt lat="48.55607" lon="-3.39453">
        <ele>129</ele>
        <time>2023-04-13T09:56:54Z</time>
      </trkpt>
      <trkpt lat="48.5555" lon="-3.39448">
        <ele>130</ele>
        <time>2023-04-13T09:58:11Z</time>
      </trkpt>
      <trkpt lat="48.555" lon="-3.39435">
        <ele>132</ele>
        <time>2023-04-13T09:59:18Z</time>
      </trkpt>
      <trkpt lat="48.55511" lon="-3.39584">
        <ele>122</ele>
        <time>2023-04-13T10:01:31Z</time>
      </trkpt>
      <trkpt lat="48.55499" lon="-3.3964">
        <ele>119</ele>
        <time>2023-04-13T10:02:23Z</time>
      </trkpt>
      <trkpt lat="48.55466" lon="-3.39631">
        <ele>116</ele>
        <time>2023-04-13T10:03:08Z</time>
      </trkpt>
      <trkpt lat="48.55468" lon="-3.39677">
        <ele>111</ele>
        <time>2023-04-13T10:03:48Z</time>
      </trkpt>
      <trkpt lat="48.5548" lon="-3.39732">
        <ele>103</ele>
        <time>2023-04-13T10:04:39Z</time>
      </trkpt>
      <trkpt lat="48.5546" lon="-3.39712">
        <ele>104</ele>
        <time>2023-04-13T10:05:11Z</time>
      </trkpt>
      <trkpt lat="48.55436" lon="-3.39804">
        <ele>90</ele>
        <time>2023-04-13T10:06:39Z</time>
      </trkpt>
      <trkpt lat="48.55416" lon="-3.39806">
        <ele>90</ele>
        <time>2023-04-13T10:07:05Z</time>
      </trkpt>
      <trkpt lat="48.55406" lon="-3.39836">
        <ele>90</ele>
        <time>2023-04-13T10:07:35Z</time>
      </trkpt>
      <trkpt lat="48.55353" lon="-3.39821">
        <ele>94</ele>
        <time>2023-04-13T10:08:47Z</time>
      </trkpt>
      <trkpt lat="48.55346" lon="-3.39848">
        <ele>98</ele>
        <time>2023-04-13T10:09:13Z</time>
      </trkpt>
      <trkpt lat="48.55317" lon="-3.39841">
        <ele>100</ele>
        <time>2023-04-13T10:09:52Z</time>
      </trkpt>
      <trkpt lat="48.55269" lon="-3.39801">
        <ele>101</ele>
        <time>2023-04-13T10:11:05Z</time>
      </trkpt>
      <trkpt lat="48.55198" lon="-3.39683">
        <ele>100</ele>
        <time>2023-04-13T10:13:26Z</time>
      </trkpt>
      <trkpt lat="48.55166" lon="-3.39649">
        <ele>102</ele>
        <time>2023-04-13T10:14:18Z</time>
      </trkpt>
      <trkpt lat="48.55113" lon="-3.39646">
        <ele>101</ele>
        <time>2023-04-13T10:15:29Z</time>
      </trkpt>
      <trkpt lat="48.55056" lon="-3.39669">
        <ele>98</ele>
        <time>2023-04-13T10:16:48Z</time>
      </trkpt>
      <trkpt lat="48.5504" lon="-3.39662">
        <ele>96</ele>
        <time>2023-04-13T10:17:10Z</time>
      </trkpt>
      <trkpt lat="48.55002" lon="-3.39683">
        <ele>95</ele>
        <time>2023-04-13T10:18:04Z</time>
      </trkpt>
      <trkpt lat="48.54949" lon="-3.39744">
        <ele>97</ele>
        <time>2023-04-13T10:19:33Z</time>
      </trkpt>
      <trkpt lat="48.54923" lon="-3.39751">
        <ele>95</ele>
        <time>2023-04-13T10:20:08Z</time>
      </trkpt>
      <trkpt lat="48.54882" lon="-3.39803">
        <ele>96</ele>
        <time>2023-04-13T10:21:19Z</time>
      </trkpt>
      <trkpt lat="48.54863" lon="-3.39827">
        <ele>97</ele>
        <time>2023-04-13T10:21:53Z</time>
      </trkpt>
      <trkpt lat="48.5483" lon="-3.39835">
        <ele>95</ele>
        <time>2023-04-13T10:22:37Z</time>
      </trkpt>
      <trkpt lat="48.54776" lon="-3.39837">
        <ele>94</ele>
        <time>2023-04-13T10:23:49Z</time>
      </trkpt>
      <trkpt lat="48.5472" lon="-3.39867">
        <ele>95</ele>
        <time>2023-04-13T10:25:09Z</time>
      </trkpt>
      <trkpt lat="48.54689" lon="-3.39875">
        <ele>93</ele>
        <time>2023-04-13T10:25:50Z</time>
      </trkpt>
      <trkpt lat="48.54694" lon="-3.39773">
        <ele>90</ele>
        <time>2023-04-13T10:27:21Z</time>
      </trkpt>
    </trkseg>
  </trk>
</gpx>